createdAt,value
2023-01-19T00:01:12.953Z,28.55
2023-01-19T00:03:41.716Z,27.60
2023-01-19T00:06:11.139Z,22.60
2023-01-19T00:08:40.211Z,30.33
2023-01-19T00:11:09.299Z,26.75
2023-01-19T00:13:38.696Z,25.48
2023-01-19T00:16:08.673Z,39.40
2023-01-19T00:18:37.417Z,23.48
2023-01-19T00:21:06.501Z,26.42
2023-01-19T00:23:35.164Z,33.30
2023-01-19T00:26:04.050Z,38.63
2023-01-19T00:28:32.903Z,55.90
2023-01-19T00:31:01.921Z,43.35
2023-01-19T00:33:30.717Z,44.80
2023-01-19T00:35:59.498Z,42.13
2023-01-19T00:38:28.408Z,36.88
2023-01-19T00:40:57.234Z,43.92
2023-01-19T00:43:26.002Z,42.85
2023-01-19T00:45:54.737Z,38.42
2023-01-19T00:48:23.602Z,36.42
2023-01-19T00:50:52.449Z,35.60
2023-01-19T00:53:21.230Z,34.35
2023-01-19T00:55:49.923Z,34.95
2023-01-19T00:58:18.712Z,27.10
2023-01-19T01:00:47.843Z,28.83
2023-01-19T01:03:16.762Z,37.53
2023-01-19T01:05:45.512Z,28.67
2023-01-19T01:08:14.296Z,28.45
2023-01-19T01:10:43.096Z,31.20
2023-01-19T01:13:20.826Z,53.55
2023-01-19T01:15:53.851Z,28.65
2023-01-19T01:18:23.331Z,28.52
2023-01-19T01:20:53.445Z,30.33
2023-01-19T01:23:24.139Z,32.97
2023-01-19T01:25:53.018Z,30.85
2023-01-19T01:28:21.983Z,29.40
2023-01-19T01:30:55.663Z,27.85
2023-01-19T01:33:40.069Z,33.28
2023-01-19T01:36:11.766Z,27.73
2023-01-19T01:38:42.755Z,30.63
2023-01-19T01:41:11.822Z,35.55
2023-01-19T01:43:48.185Z,22.75
2023-01-19T01:46:19.445Z,22.63
2023-01-19T01:48:57.465Z,19.27
2023-01-19T01:51:37.487Z,22.30
2023-01-19T01:54:14.729Z,23.45
2023-01-19T01:56:51.110Z,16.45
2023-01-19T01:59:30.616Z,18.23
2023-01-19T02:02:23.907Z,20.98
2023-01-19T02:12:45.849Z,19.08
2023-01-19T02:15:18.440Z,17.25
2023-01-19T02:17:47.583Z,7.10
2023-01-19T02:20:17.002Z,22.50
2023-01-19T02:22:51.302Z,14.05
2023-01-19T02:25:21.511Z,15.68
2023-01-19T02:27:51.537Z,12.77
2023-01-19T02:30:20.866Z,8.68
2023-01-19T02:32:50.207Z,14.35
2023-01-19T02:35:19.090Z,13.70
2023-01-19T02:37:49.545Z,25.17
2023-01-19T02:40:21.274Z,13.10
2023-01-19T02:42:53.622Z,15.85
2023-01-19T02:45:24.039Z,11.95
2023-01-19T02:47:54.344Z,14.32
2023-01-19T02:50:43.080Z,12.07
2023-01-19T02:53:34.410Z,11.20
2023-01-19T02:56:13.027Z,12.32
2023-01-19T02:58:47.617Z,10.02
2023-01-19T03:01:40.215Z,12.55
2023-01-19T03:04:15.657Z,12.20
2023-01-19T03:06:56.848Z,13.50
2023-01-19T03:09:44.630Z,10.43
2023-01-19T03:12:15.303Z,15.15
2023-01-19T03:14:49.120Z,12.00
2023-01-19T03:17:20.343Z,10.45
2023-01-19T03:19:51.954Z,12.80
2023-01-19T03:22:26.987Z,9.52
2023-01-19T03:25:00.674Z,8.68
2023-01-19T03:27:34.202Z,15.85
2023-01-19T03:30:09.431Z,8.00
2023-01-19T03:32:43.970Z,10.43
2023-01-19T03:35:17.074Z,9.80
2023-01-19T03:40:15.455Z,11.50
2023-01-19T03:42:45.770Z,12.48
2023-01-19T03:45:15.679Z,11.52
2023-01-19T03:47:44.763Z,9.32
2023-01-19T03:50:22.336Z,13.93
2023-01-19T03:53:03.456Z,9.88
2023-01-19T03:55:32.183Z,9.27
2023-01-19T03:58:01.149Z,8.82
2023-01-19T04:00:30.057Z,10.77
2023-01-19T04:02:59.256Z,10.82
2023-01-19T04:05:28.210Z,11.35
2023-01-19T04:07:57.063Z,15.63
2023-01-19T04:10:26.601Z,9.30
2023-01-19T04:13:03.554Z,13.88
2023-01-19T04:15:33.760Z,11.80
2023-01-19T04:18:03.073Z,10.32
2023-01-19T04:20:31.882Z,13.55
2023-01-19T04:23:02.273Z,9.70
2023-01-19T04:25:31.292Z,9.38
2023-01-19T04:28:00.210Z,10.07
2023-01-19T04:30:29.397Z,8.85
2023-01-19T04:33:00.348Z,9.93
2023-01-19T04:35:29.890Z,10.60
2023-01-19T04:37:58.658Z,9.00
2023-01-19T04:40:27.505Z,11.63
2023-01-19T04:42:56.315Z,12.50
2023-01-19T04:45:25.135Z,13.55
2023-01-19T04:47:53.962Z,13.40
2023-01-19T04:50:22.921Z,11.45
2023-01-19T04:52:51.911Z,11.13
2023-01-19T04:55:21.018Z,10.55
2023-01-19T04:57:49.929Z,12.38
2023-01-19T05:00:19.580Z,14.20
2023-01-19T05:02:49.831Z,10.48
2023-01-19T05:05:19.414Z,39.00
2023-01-19T05:07:48.196Z,9.52
2023-01-19T05:10:17.106Z,9.35
2023-01-19T05:12:46.103Z,38.70
2023-01-19T05:15:15.004Z,10.32
2023-01-19T05:17:43.948Z,15.27
2023-01-19T05:20:16.198Z,9.82
2023-01-19T05:22:54.709Z,15.57
2023-01-19T05:25:27.093Z,10.57
2023-01-19T05:27:55.937Z,7.82
2023-01-19T05:30:24.781Z,11.07
2023-01-19T05:32:53.514Z,12.55
2023-01-19T05:35:35.295Z,16.27
2023-01-19T05:38:05.040Z,13.30
2023-01-19T05:40:34.516Z,11.10
2023-01-19T05:43:05.986Z,11.55
2023-01-19T05:45:39.856Z,11.40
2023-01-19T05:48:10.299Z,10.23
2023-01-19T05:50:39.120Z,12.48
2023-01-19T05:53:07.843Z,13.65
2023-01-19T05:55:36.797Z,10.80
2023-01-19T05:58:05.615Z,9.45
2023-01-19T06:00:34.327Z,8.63
2023-01-19T06:03:03.846Z,11.18
2023-01-19T06:05:33.149Z,13.45
2023-01-19T06:08:02.081Z,11.73
2023-01-19T06:10:30.899Z,10.90
2023-01-19T06:13:00.034Z,10.60
2023-01-19T06:15:29.221Z,9.95
2023-01-19T06:17:58.113Z,9.65
2023-01-19T06:20:27.024Z,7.75
2023-01-19T06:22:59.204Z,7.93
2023-01-19T06:25:28.324Z,8.18
2023-01-19T06:27:57.262Z,5.53
2023-01-19T06:30:26.039Z,5.43
2023-01-19T06:32:55.599Z,11.18
2023-01-19T06:35:24.488Z,5.25
2023-01-19T06:37:54.504Z,5.82
2023-01-19T06:40:23.301Z,6.00
2023-01-19T06:42:52.118Z,5.65
2023-01-19T06:45:20.911Z,6.95
2023-01-19T06:47:49.985Z,6.53
2023-01-19T06:50:18.694Z,6.97
2023-01-19T06:52:47.583Z,6.28
2023-01-19T06:55:17.278Z,6.93
2023-01-19T06:57:47.175Z,5.75
2023-01-19T07:00:16.392Z,7.72
2023-01-19T07:02:45.788Z,7.00
2023-01-19T07:05:15.449Z,6.32
2023-01-19T07:07:45.947Z,5.50
2023-01-19T07:10:16.729Z,6.22
2023-01-19T07:12:48.399Z,5.78
2023-01-19T07:15:18.552Z,4.43
2023-01-19T07:17:47.736Z,9.88
2023-01-19T07:20:16.955Z,9.45
2023-01-19T07:22:47.621Z,5.35
2023-01-19T07:25:17.002Z,5.88
2023-01-19T07:27:46.133Z,11.93
2023-01-19T07:30:17.110Z,7.70
2023-01-19T07:32:46.001Z,7.45
2023-01-19T07:35:15.535Z,6.15
2023-01-19T07:37:44.260Z,7.15
2023-01-19T07:40:13.508Z,6.53
2023-01-19T07:42:47.677Z,5.07
2023-01-19T07:45:18.436Z,6.75
2023-01-19T07:47:49.812Z,4.72
2023-01-19T07:50:25.513Z,5.82
2023-01-19T07:52:54.731Z,8.98
2023-01-19T07:55:24.510Z,6.07
2023-01-19T07:57:53.843Z,12.90
2023-01-19T08:00:25.958Z,8.00
2023-01-19T08:03:00.163Z,5.47
2023-01-19T08:05:30.811Z,5.70
2023-01-19T08:08:00.035Z,5.97
2023-01-19T08:10:30.303Z,7.63
2023-01-19T08:13:00.261Z,5.38
2023-01-19T08:15:29.505Z,11.38
2023-01-19T08:17:59.767Z,8.43
2023-01-19T08:20:30.288Z,5.68
2023-01-19T08:23:03.751Z,7.55
2023-01-19T08:25:37.742Z,6.18
2023-01-19T08:28:08.016Z,5.90
2023-01-19T08:30:37.241Z,6.82
2023-01-19T08:33:09.040Z,7.90
2023-01-19T08:35:42.667Z,7.03
2023-01-19T08:38:12.321Z,7.63
2023-01-19T08:40:42.408Z,7.32
2023-01-19T08:43:15.106Z,6.72
2023-01-19T08:45:50.097Z,6.57
2023-01-19T08:48:21.469Z,7.60
2023-01-19T08:50:51.642Z,5.97
2023-01-19T08:53:22.174Z,6.97
2023-01-19T08:55:52.214Z,14.55
2023-01-19T08:58:21.045Z,6.18
2023-01-19T09:00:50.315Z,11.40
2023-01-19T09:03:19.837Z,5.93
2023-01-19T09:05:49.054Z,5.88
2023-01-19T09:08:18.446Z,5.65
2023-01-19T09:10:50.136Z,6.78
2023-01-19T09:13:20.101Z,5.70
2023-01-19T09:15:49.085Z,5.95
2023-01-19T09:18:21.312Z,5.60
2023-01-19T09:20:51.903Z,6.60
2023-01-19T09:23:21.963Z,6.45
2023-01-19T09:25:57.056Z,9.82
2023-01-19T09:28:25.829Z,7.32
2023-01-19T09:30:55.232Z,12.13
2023-01-19T09:33:24.152Z,8.57
2023-01-19T09:35:53.128Z,7.20
2023-01-19T09:38:23.488Z,22.67
2023-01-19T09:40:56.562Z,9.15
2023-01-19T09:43:26.198Z,12.77
2023-01-19T09:46:00.240Z,10.68
2023-01-19T09:48:47.098Z,10.77
2023-01-19T09:51:23.164Z,10.45
2023-01-19T09:53:53.909Z,7.35
2023-01-19T09:56:23.946Z,12.73
2023-01-19T09:58:54.175Z,8.05
2023-01-19T10:01:58.430Z,8.23
2023-01-19T10:04:52.858Z,13.32
2023-01-19T10:07:23.539Z,13.38
2023-01-19T10:10:01.832Z,18.02
2023-01-19T10:12:35.954Z,11.82
2023-01-19T10:15:18.585Z,12.07
2023-01-19T10:17:58.390Z,11.32
2023-01-19T10:20:34.437Z,9.23
2023-01-19T10:23:05.723Z,8.88
2023-01-19T10:25:35.454Z,10.80
2023-01-19T10:28:08.514Z,12.85
2023-01-19T10:30:37.569Z,17.95
2023-01-19T10:33:06.270Z,9.55
2023-01-19T10:35:36.700Z,10.55
2023-01-19T10:38:05.754Z,12.65
2023-01-19T10:40:39.790Z,9.60
2023-01-19T10:43:45.277Z,12.55
2023-01-19T10:46:25.565Z,14.73
2023-01-19T10:48:55.666Z,15.32
2023-01-19T10:51:24.643Z,18.83
2023-01-19T10:54:14.776Z,15.32
2023-01-19T10:56:44.465Z,12.63
2023-01-19T10:59:34.723Z,14.25
2023-01-19T11:02:27.585Z,15.40
2023-01-19T11:04:59.824Z,14.55
2023-01-19T11:07:30.447Z,15.57
2023-01-19T11:10:21.894Z,17.50
2023-01-19T11:13:02.101Z,19.90
2023-01-19T11:15:37.626Z,20.13
2023-01-19T11:18:08.147Z,20.67
2023-01-19T11:20:55.178Z,18.42
2023-01-19T11:23:28.363Z,25.50
2023-01-19T11:26:01.676Z,20.92
2023-01-19T11:28:43.607Z,76.32
2023-01-19T11:33:52.568Z,117.70
2023-01-19T11:36:24.948Z,132.10
2023-01-19T11:38:57.847Z,70.72
2023-01-19T11:44:17.188Z,63.80
2023-01-19T11:46:50.059Z,62.90
2023-01-19T11:51:59.993Z,50.42
2023-01-19T11:54:34.732Z,40.60
2023-01-19T11:57:05.931Z,27.00
2023-01-19T11:59:35.284Z,19.27
2023-01-19T12:02:12.494Z,21.92
2023-01-19T12:04:45.457Z,14.75
2023-01-19T12:09:47.487Z,15.43
2023-01-19T12:12:26.564Z,13.82
2023-01-19T12:14:57.205Z,13.85
2023-01-19T12:17:30.551Z,19.55
2023-01-19T12:20:14.410Z,14.27
2023-01-19T12:22:52.345Z,19.05
2023-01-19T12:25:26.526Z,15.35
2023-01-19T12:27:56.324Z,13.50
2023-01-19T12:30:29.493Z,13.40
2023-01-19T12:33:38.529Z,13.63
2023-01-19T12:36:19.194Z,22.33
2023-01-19T12:38:54.031Z,21.17
2023-01-19T12:41:43.813Z,17.88
2023-01-19T12:44:13.523Z,30.98
2023-01-19T12:46:51.160Z,17.60
2023-01-19T12:49:21.846Z,20.98
2023-01-19T12:51:53.102Z,18.15
2023-01-19T12:54:32.499Z,17.67
2023-01-19T12:57:05.832Z,22.70
2023-01-19T12:59:36.687Z,17.85
2023-01-19T13:02:22.165Z,20.67
2023-01-19T13:05:11.142Z,21.70
2023-01-19T13:08:07.876Z,16.73
2023-01-19T13:10:56.731Z,20.80
2023-01-19T13:13:27.515Z,25.73
2023-01-19T13:15:58.332Z,21.33
2023-01-19T13:18:30.880Z,20.30
2023-01-19T13:21:02.575Z,21.02
2023-01-19T13:23:51.590Z,23.20
2023-01-19T13:26:24.348Z,23.20
2023-01-19T13:28:57.170Z,28.83
2023-01-19T13:31:28.117Z,23.58
2023-01-19T13:34:00.759Z,24.70
2023-01-19T13:36:34.240Z,22.35
2023-01-19T13:39:08.733Z,26.70
2023-01-19T13:41:41.169Z,22.27
2023-01-19T13:44:19.554Z,25.10
2023-01-19T13:46:49.722Z,22.70
2023-01-19T13:49:25.997Z,23.27
2023-01-19T13:52:30.328Z,19.20
2023-01-19T13:55:03.775Z,19.10
2023-01-19T13:57:40.857Z,18.23
2023-01-19T14:00:15.324Z,16.63
2023-01-19T14:02:53.202Z,15.95
2023-01-19T14:05:39.604Z,19.90
2023-01-19T14:08:15.694Z,19.20
2023-01-19T14:10:47.535Z,19.10
2023-01-19T14:13:22.328Z,17.17
2023-01-19T14:15:54.603Z,18.90
2023-01-19T14:18:25.010Z,22.65
2023-01-19T14:20:57.979Z,17.38
2023-01-19T14:26:54.026Z,17.83
2023-01-19T14:29:25.985Z,19.90
2023-01-19T14:32:16.210Z,21.20
2023-01-19T14:34:51.786Z,23.38
2023-01-19T14:37:32.266Z,22.45
2023-01-19T14:40:22.252Z,20.40
2023-01-19T14:42:55.200Z,21.60
2023-01-19T14:45:34.543Z,21.10
2023-01-19T14:48:06.400Z,25.95
2023-01-19T14:50:37.710Z,24.15
2023-01-19T14:53:25.767Z,23.95
2023-01-19T14:55:58.127Z,27.65
2023-01-19T14:58:29.229Z,24.63
2023-01-19T15:00:58.212Z,28.55
2023-01-19T15:03:42.664Z,24.02
2023-01-19T15:06:18.710Z,25.98
2023-01-19T15:08:48.419Z,28.05
2023-01-19T15:11:31.509Z,22.08
2023-01-19T15:14:01.339Z,24.02
2023-01-19T15:16:32.992Z,28.10
2023-01-19T15:19:02.252Z,26.38
2023-01-19T15:21:31.290Z,26.83
2023-01-19T15:24:00.201Z,27.33
2023-01-19T15:26:29.323Z,28.33
2023-01-19T15:28:58.616Z,43.22
2023-01-19T15:31:28.709Z,26.75
2023-01-19T15:33:57.695Z,28.83
2023-01-19T15:36:27.260Z,23.00
2023-01-19T15:38:58.267Z,26.38
2023-01-19T15:41:30.911Z,26.63
2023-01-19T15:44:00.364Z,30.58
2023-01-19T15:46:29.490Z,28.48
2023-01-19T15:48:58.427Z,28.55
2023-01-19T15:51:28.622Z,26.75
2023-01-19T15:53:57.965Z,24.95
2023-01-19T15:56:29.726Z,27.90
2023-01-19T15:58:59.897Z,22.52
2023-01-19T16:01:33.561Z,27.52
2023-01-19T16:04:05.250Z,24.52
2023-01-19T16:06:34.478Z,25.35
2023-01-19T16:09:04.924Z,24.73
2023-01-19T16:11:36.735Z,23.55
2023-01-19T16:14:05.730Z,24.35
2023-01-19T16:16:34.494Z,23.67
2023-01-19T16:19:03.687Z,22.02
2023-01-19T16:21:32.702Z,26.58
2023-01-19T16:24:01.660Z,22.65
2023-01-19T16:26:35.447Z,21.30
2023-01-19T16:29:11.051Z,21.45
2023-01-19T16:31:41.989Z,23.40
2023-01-19T16:34:11.519Z,20.67
2023-01-19T16:36:42.829Z,20.45
2023-01-19T16:39:15.181Z,21.27
2023-01-19T16:41:45.407Z,15.68
2023-01-19T16:44:16.115Z,21.48
2023-01-19T16:46:47.462Z,15.88
2023-01-19T16:49:21.341Z,18.27
2023-01-19T16:51:51.601Z,18.63
2023-01-19T16:54:24.197Z,15.63
2023-01-19T16:56:54.395Z,15.65
2023-01-19T17:03:42.809Z,17.63
2023-01-19T17:06:14.797Z,17.02
2023-01-19T17:08:43.767Z,15.20
2023-01-19T17:11:15.451Z,16.92
2023-01-19T17:13:44.287Z,15.82
2023-01-19T17:16:13.142Z,15.82
2023-01-19T17:18:42.270Z,13.43
2023-01-19T17:21:12.266Z,12.95
2023-01-19T17:23:44.876Z,11.80
2023-01-19T17:26:14.061Z,13.02
2023-01-19T17:28:43.096Z,11.05
2023-01-19T17:31:15.023Z,14.30
2023-01-19T17:33:46.521Z,12.75
2023-01-19T17:36:23.506Z,12.93
2023-01-19T17:38:53.063Z,11.75
2023-01-19T17:41:26.102Z,9.95
2023-01-19T17:46:26.842Z,10.85
2023-01-19T17:48:57.682Z,9.27
2023-01-19T17:51:27.554Z,9.73
2023-01-19T17:53:56.978Z,9.38
2023-01-19T17:56:30.639Z,9.73
2023-01-19T17:59:00.433Z,12.20
2023-01-19T18:01:32.052Z,10.07
2023-01-19T18:04:02.208Z,10.63
2023-01-19T18:06:31.295Z,10.15
2023-01-19T18:09:00.907Z,8.00
2023-01-19T18:11:30.260Z,7.07
2023-01-19T18:13:59.714Z,7.47
2023-01-19T18:16:30.828Z,8.45
2023-01-19T18:18:59.713Z,7.47
2023-01-19T18:21:29.264Z,7.88
2023-01-19T18:24:03.354Z,6.97
2023-01-19T18:26:33.557Z,9.13
2023-01-19T18:29:02.494Z,7.82
2023-01-19T18:31:31.595Z,9.63
2023-01-19T18:34:00.728Z,9.02
2023-01-19T18:36:29.580Z,8.38
2023-01-19T18:39:01.403Z,7.97
2023-01-19T18:41:30.875Z,9.05
2023-01-19T18:44:00.724Z,8.32
2023-01-19T18:46:29.715Z,8.70
2023-01-19T18:48:58.674Z,7.20
2023-01-19T18:51:27.637Z,6.93
2023-01-19T18:54:00.129Z,7.40
2023-01-19T18:56:29.023Z,8.38
2023-01-19T18:58:58.451Z,7.82
2023-01-19T19:01:32.399Z,9.18
2023-01-19T19:04:02.028Z,7.80
2023-01-19T19:06:31.418Z,9.10
2023-01-19T19:09:00.556Z,10.23
2023-01-19T19:11:29.878Z,11.85
2023-01-19T19:14:02.214Z,12.98
2023-01-19T19:16:34.724Z,11.05
2023-01-19T19:19:04.335Z,9.48
2023-01-19T19:21:33.089Z,10.38
2023-01-19T19:24:01.858Z,9.82
2023-01-19T19:26:30.845Z,9.73
2023-01-19T19:28:59.611Z,8.85
2023-01-19T19:31:29.341Z,9.30
2023-01-19T19:33:59.666Z,8.73
2023-01-19T19:36:29.772Z,12.60
2023-01-19T19:39:01.236Z,9.18
2023-01-19T19:41:30.564Z,11.02
2023-01-19T19:43:59.536Z,10.68
2023-01-19T19:46:28.841Z,9.13
2023-01-19T19:48:57.547Z,9.68
2023-01-19T19:51:28.645Z,8.52
2023-01-19T19:54:00.020Z,7.88
2023-01-19T19:56:31.057Z,8.05
2023-01-19T19:59:00.588Z,8.48
2023-01-19T20:01:33.249Z,8.00
2023-01-19T20:04:09.102Z,8.80
2023-01-19T20:06:40.770Z,12.32
2023-01-19T20:09:11.635Z,9.82
2023-01-19T20:11:41.276Z,8.95
2023-01-19T20:14:12.099Z,10.88
2023-01-19T20:16:41.124Z,9.35
2023-01-19T20:19:09.934Z,202.18
2023-01-19T20:21:42.723Z,37.55
2023-01-19T20:24:21.319Z,11.95
2023-01-19T20:26:53.280Z,11.30
2023-01-19T20:29:22.584Z,11.35
2023-01-19T20:31:54.772Z,14.88
2023-01-19T20:34:28.113Z,14.80
2023-01-19T20:36:56.997Z,16.65
2023-01-19T20:39:26.551Z,13.93
2023-01-19T20:41:55.435Z,19.42
2023-01-19T20:44:26.044Z,19.92
2023-01-19T20:46:56.307Z,27.73
2023-01-19T20:49:25.346Z,23.88
2023-01-19T20:51:54.646Z,22.48
2023-01-19T20:54:28.947Z,25.17
2023-01-19T20:56:58.330Z,29.42
2023-01-19T20:59:27.321Z,29.70
2023-01-19T21:01:56.683Z,43.08
2023-01-19T21:04:25.469Z,34.17
2023-01-19T21:06:54.253Z,47.30
2023-01-19T21:09:23.877Z,31.02
2023-01-19T21:11:52.577Z,40.67
2023-01-19T21:14:21.315Z,32.63
2023-01-19T21:16:53.398Z,29.48
2023-01-19T21:19:24.984Z,34.97
2023-01-19T21:21:53.681Z,30.38
2023-01-19T21:24:22.405Z,23.27
2023-01-19T21:26:51.202Z,19.40
2023-01-19T21:29:20.055Z,22.27
2023-01-19T21:31:49.128Z,18.67
2023-01-19T21:34:17.891Z,18.50
2023-01-19T21:36:46.755Z,21.17
2023-01-19T21:39:24.836Z,19.25
2023-01-19T21:41:55.061Z,18.05
2023-01-19T21:44:24.673Z,21.13
2023-01-19T21:46:53.780Z,18.48
2023-01-19T21:49:22.927Z,19.52
2023-01-19T21:51:51.824Z,20.08
2023-01-19T21:54:20.829Z,18.90
2023-01-19T21:56:49.516Z,20.50
2023-01-19T21:59:20.340Z,18.02
2023-01-19T22:01:49.429Z,24.25
2023-01-19T22:04:18.366Z,24.20
2023-01-19T22:06:47.416Z,24.27
2023-01-19T22:09:16.293Z,27.88
2023-01-19T22:11:45.132Z,27.15
2023-01-19T22:14:13.985Z,27.05
2023-01-19T22:16:42.778Z,25.80
2023-01-19T22:19:15.403Z,33.15
2023-01-19T22:21:44.230Z,27.98
2023-01-19T22:24:13.805Z,28.67
2023-01-19T22:26:42.615Z,31.30
2023-01-19T22:29:12.825Z,29.02
2023-01-19T22:31:42.182Z,30.25
2023-01-19T22:34:11.860Z,28.08
2023-01-19T22:36:40.776Z,29.70
2023-01-19T22:39:11.997Z,32.50
2023-01-19T22:41:43.422Z,29.48
2023-01-19T22:44:16.735Z,31.38
2023-01-19T22:46:45.929Z,31.42
2023-01-19T22:49:16.983Z,28.95
2023-01-19T22:51:46.618Z,30.00
2023-01-19T22:54:15.791Z,29.15
2023-01-19T22:56:44.789Z,29.30
2023-01-19T22:59:13.479Z,27.75
2023-01-19T23:01:44.767Z,27.52
2023-01-19T23:04:16.728Z,29.48
2023-01-19T23:06:51.190Z,32.13
2023-01-19T23:09:20.654Z,34.65
2023-01-19T23:11:52.228Z,36.35
2023-01-19T23:14:23.033Z,32.85
2023-01-19T23:16:51.832Z,39.00
2023-01-19T23:19:20.920Z,35.85
2023-01-19T23:21:53.621Z,35.60
2023-01-19T23:24:22.669Z,35.58
2023-01-19T23:26:52.191Z,34.58
2023-01-19T23:29:21.082Z,33.65
2023-01-19T23:31:54.365Z,28.60
2023-01-19T23:34:23.178Z,27.38
2023-01-19T23:36:51.843Z,34.65
2023-01-19T23:39:23.531Z,32.70
2023-01-19T23:41:52.602Z,34.72
2023-01-19T23:44:21.479Z,32.53
2023-01-19T23:46:50.243Z,36.17
2023-01-19T23:49:19.124Z,28.58
2023-01-19T23:51:47.931Z,39.53
2023-01-19T23:54:16.813Z,29.85
2023-01-19T23:56:45.582Z,30.63
2023-01-19T23:59:17.010Z,36.28
